Time;durP1;ratioP1;P1;durP2;ratioP2;P2;SDS_P1;SDS_P2;PMS_P1;PMS_P2;Temp;Humidity;BMP_temperature;BMP_pressure;BME280_temperature;BME280_humidity;BME280_pressure;Samples;Min_cycle;Max_cycle;Signal;HPM_P1;HPM_P2
2022/07/08 00:01:27;;;;;;;293.93;276.67;;;15.10;99.90;;;;;;5006925;28;20192;-73
2022/07/08 00:03:53;;;;;;;30.40;12.63;;;15.10;99.90;;;;;;5006558;28;20820;-72
2022/07/08 00:06:18;;;;;;;27.43;9.13;;;15.10;99.90;;;;;;5010101;28;20579;-72
2022/07/08 00:08:44;;;;;;;26.87;10.97;;;15.00;99.90;;;;;;5006119;28;20255;-74
2022/07/08 00:11:10;;;;;;;38.27;12.67;;;14.90;99.90;;;;;;5006381;28;20829;-72
2022/07/08 00:13:36;;;;;;;36.70;11.00;;;14.90;99.90;;;;;;5004093;28;20192;-73
2022/07/08 00:16:04;;;;;;;44.73;13.20;;;15.00;99.90;;;;;;5006721;28;20195;-73
2022/07/08 00:18:30;;;;;;;35.13;11.23;;;15.00;99.90;;;;;;5006802;28;20223;-73
2022/07/08 00:20:55;;;;;;;41.57;13.10;;;14.90;99.90;;;;;;5018613;28;20304;-73
2022/07/08 00:23:21;;;;;;;32.37;11.23;;;14.90;99.90;;;;;;5012290;28;20196;-74
2022/07/08 00:25:46;;;;;;;39.23;11.90;;;14.80;99.90;;;;;;5020946;28;20200;-75
2022/07/08 00:28:15;;;;;;;26.73;9.90;;;14.70;99.90;;;;;;5012881;28;20313;-76
2022/07/08 00:30:40;;;;;;;32.93;11.30;;;14.70;99.90;;;;;;5013863;28;20196;-75
2022/07/08 00:33:08;;;;;;;39.27;14.00;;;14.70;99.90;;;;;;5005901;28;20204;-75
2022/07/08 00:35:34;;;;;;;35.77;12.00;;;14.70;99.90;;;;;;5009488;28;20207;-73
2022/07/08 00:37:59;;;;;;;41.97;13.63;;;14.90;99.90;;;;;;5003767;28;20203;-73
2022/07/08 00:40:25;;;;;;;31.90;13.37;;;14.70;99.90;;;;;;5007186;28;20215;-74
2022/07/08 00:42:50;;;;;;;40.13;18.37;;;14.60;99.90;;;;;;5004847;28;20188;-73
2022/07/08 00:45:16;;;;;;;40.27;17.30;;;14.60;99.90;;;;;;5007145;28;20168;-73
2022/07/08 00:47:43;;;;;;;46.77;25.67;;;14.60;99.90;;;;;;5005224;28;20288;-73
2022/07/08 00:50:09;;;;;;;106.63;98.17;;;14.50;99.90;;;;;;5005366;28;20192;-73
2022/07/08 00:52:39;;;;;;;42.67;13.87;;;14.50;99.90;;;;;;5006822;28;20208;-74
2022/07/08 00:55:06;;;;;;;39.30;15.50;;;14.50;99.90;;;;;;5005282;28;20777;-75
2022/07/08 00:57:33;;;;;;;33.70;14.30;;;14.50;99.90;;;;;;5003878;28;20211;-76
2022/07/08 00:59:59;;;;;;;36.60;21.57;;;14.60;99.90;;;;;;5006855;28;20197;-75
2022/07/08 01:02:24;;;;;;;37.17;25.87;;;14.70;99.90;;;;;;5008173;28;20259;-75
2022/07/08 01:04:50;;;;;;;34.60;20.80;;;14.70;99.90;;;;;;5005317;28;20185;-75
2022/07/08 01:07:16;;;;;;;83.77;74.90;;;14.70;99.90;;;;;;5009368;28;20222;-75
2022/07/08 01:09:41;;;;;;;39.97;28.07;;;14.60;99.90;;;;;;5020591;28;20191;-75
2022/07/08 01:12:07;;;;;;;82.57;60.10;;;14.60;99.90;;;;;;5022013;28;20199;-75
2022/07/08 01:14:33;;;;;;;54.40;49.30;;;14.70;99.90;;;;;;5023717;28;20224;-74
2022/07/08 01:16:58;;;;;;;101.47;88.00;;;14.60;99.90;;;;;;5024805;28;20196;-74
2022/07/08 01:19:24;;;;;;;111.73;104.00;;;14.60;99.90;;;;;;5024433;28;20235;-74
2022/07/08 01:21:50;;;;;;;162.60;152.37;;;14.60;99.90;;;;;;5027912;28;20186;-74
2022/07/08 01:24:16;;;;;;;88.07;81.70;;;14.80;99.90;;;;;;5015489;28;20218;-74
2022/07/08 01:26:42;;;;;;;154.37;144.30;;;14.70;99.90;;;;;;5029140;28;20179;-74
2022/07/08 01:29:08;;;;;;;247.80;233.77;;;14.70;99.90;;;;;;5007962;28;20204;-75
2022/07/08 01:31:33;;;;;;;324.77;306.73;;;14.60;99.90;;;;;;5028173;28;20192;-74
2022/07/08 01:33:59;;;;;;;334.63;315.43;;;14.50;99.90;;;;;;5010118;28;20674;-75
2022/07/08 01:36:24;;;;;;;45.00;22.57;;;14.60;99.90;;;;;;5028646;28;20195;-74
2022/07/08 01:38:50;;;;;;;39.40;12.13;;;14.60;99.90;;;;;;5015177;28;20550;-75
2022/07/08 01:41:15;;;;;;;36.80;12.80;;;14.60;99.90;;;;;;5028732;28;20194;-75
2022/07/08 01:43:41;;;;;;;32.03;10.53;;;14.60;99.90;;;;;;5015459;28;20222;-73
2022/07/08 01:46:06;;;;;;;27.00;9.37;;;14.70;99.90;;;;;;5028417;28;20212;-75
2022/07/08 01:48:32;;;;;;;35.17;11.10;;;14.70;99.90;;;;;;5008243;28;20208;-73
2022/07/08 01:50:57;;;;;;;40.37;13.57;;;14.70;99.90;;;;;;5026457;28;20634;-74
2022/07/08 01:53:23;;;;;;;30.53;10.77;;;14.70;99.90;;;;;;5014687;28;20200;-73
2022/07/08 01:55:50;;;;;;;37.63;11.47;;;14.70;99.90;;;;;;5024903;28;20646;-75
2022/07/08 01:58:15;;;;;;;31.40;9.50;;;14.60;99.90;;;;;;5016231;28;20643;-75
2022/07/08 02:00:41;;;;;;;34.80;10.77;;;14.60;99.90;;;;;;5027489;28;20211;-75
2022/07/08 02:03:06;;;;;;;31.47;10.60;;;14.50;99.90;;;;;;5025705;28;20199;-75
2022/07/08 02:05:34;;;;;;;36.63;13.17;;;14.60;99.90;;;;;;5028131;28;20188;-75
2022/07/08 02:08:00;;;;;;;31.83;11.67;;;14.50;99.90;;;;;;5017544;28;20208;-75
2022/07/08 02:10:25;;;;;;;30.47;9.90;;;14.60;99.90;;;;;;5027573;28;20187;-76
2022/07/08 02:12:50;;;;;;;27.50;10.93;;;14.50;99.90;;;;;;5025654;28;20253;-75
2022/07/08 02:15:16;;;;;;;37.37;14.00;;;14.50;99.90;;;;;;5016216;28;20511;-76
2022/07/08 02:17:43;;;;;;;43.73;15.33;;;14.50;99.90;;;;;;5019051;28;20231;-76
2022/07/08 02:20:11;;;;;;;35.70;13.20;;;14.40;99.90;;;;;;5018914;28;20249;-74
2022/07/08 02:22:37;;;;;;;40.00;12.43;;;14.40;99.90;;;;;;5020242;28;20854;-74
2022/07/08 02:25:04;;;;;;;31.93;10.60;;;14.40;99.90;;;;;;5018166;28;20187;-74
2022/07/08 02:27:29;;;;;;;39.70;14.37;;;14.40;99.90;;;;;;5024898;28;20199;-76
2022/07/08 02:29:55;;;;;;;39.93;14.20;;;14.40;99.90;;;;;;5014614;28;20179;-78
2022/07/08 02:32:20;;;;;;;64.47;25.37;;;14.40;99.90;;;;;;5024065;28;21204;-75
2022/07/08 02:34:46;;;;;;;36.53;16.77;;;14.50;99.90;;;;;;5008424;28;20516;-74
2022/07/08 02:37:13;;;;;;;95.40;87.87;;;14.60;99.90;;;;;;5025387;28;20282;-73
2022/07/08 02:39:39;;;;;;;52.17;44.90;;;14.60;99.90;;;;;;5012884;28;20215;-75
2022/07/08 02:42:04;;;;;;;95.47;84.77;;;14.50;99.90;;;;;;5025368;28;20589;-74
2022/07/08 02:44:30;;;;;;;97.53;91.20;;;14.50;99.90;;;;;;5018580;28;20180;-73
2022/07/08 02:46:55;;;;;;;122.10;110.03;;;14.40;99.90;;;;;;5020643;28;20222;-73
2022/07/08 02:49:21;;;;;;;84.83;77.97;;;14.40;99.90;;;;;;5015656;28;20611;-73
2022/07/08 02:51:47;;;;;;;122.90;112.33;;;14.50;99.90;;;;;;5024764;28;20200;-72
2022/07/08 02:54:12;;;;;;;203.70;191.63;;;14.50;99.90;;;;;;5018311;28;20267;-73
2022/07/08 02:56:38;;;;;;;296.50;280.33;;;14.40;99.90;;;;;;5024651;28;20231;-73
2022/07/08 02:59:04;;;;;;;33.03;27.63;;;14.50;99.90;;;;;;5019294;28;20255;-72
2022/07/08 03:01:30;;;;;;;63.97;56.10;;;14.50;99.90;;;;;;5026194;28;20233;-71
2022/07/08 03:03:55;;;;;;;55.20;49.63;;;14.60;99.90;;;;;;5016680;28;20482;-72
2022/07/08 03:06:21;;;;;;;65.60;59.50;;;14.60;99.90;;;;;;5026522;28;20538;-72
2022/07/08 03:08:47;;;;;;;104.07;96.73;;;14.60;99.90;;;;;;5021776;28;20200;-72
2022/07/08 03:11:12;;;;;;;176.17;165.97;;;14.70;99.90;;;;;;5025965;28;20196;-72
2022/07/08 03:13:38;;;;;;;267.80;253.37;;;14.70;99.90;;;;;;5011409;28;20204;-72
2022/07/08 03:16:04;;;;;;;158.17;148.90;;;14.70;99.90;;;;;;5023633;28;20253;-72
2022/07/08 03:18:40;;;;;;;197.03;186.17;;;14.70;99.90;;;;;;5015313;28;20292;-71
2022/07/08 03:21:07;;;;;;;177.20;166.27;;;14.70;99.90;;;;;;5025918;28;20222;-73
2022/07/08 03:23:33;;;;;;;166.67;158.20;;;14.70;99.90;;;;;;5011285;28;20709;-72
2022/07/08 03:25:58;;;;;;;176.33;166.57;;;14.70;99.90;;;;;;5026418;28;20187;-73
2022/07/08 03:28:24;;;;;;;357.70;337.30;;;14.70;99.90;;;;;;5011279;28;20201;-72
2022/07/08 03:30:49;;;;;;;161.50;151.30;;;14.80;99.90;;;;;;5025568;28;20217;-73
2022/07/08 03:33:15;;;;;;;178.07;167.80;;;14.80;99.90;;;;;;5012336;28;20394;-73
2022/07/08 03:35:40;;;;;;;185.13;174.73;;;14.80;99.90;;;;;;5023447;28;20253;-74
2022/07/08 03:38:06;;;;;;;231.00;218.73;;;14.80;99.90;;;;;;5012496;28;20242;-73
2022/07/08 03:43:15;;;;;;;203.53;191.40;;;14.90;99.90;;;;;;5006399;28;20207;-73
2022/07/08 03:45:41;;;;;;;136.27;127.87;;;14.80;99.90;;;;;;5025954;28;20191;-73
2022/07/08 03:48:06;;;;;;;148.03;139.07;;;14.80;99.90;;;;;;5012921;28;20207;-73
2022/07/08 03:50:32;;;;;;;159.50;149.93;;;14.80;99.90;;;;;;5025627;28;20689;-73
2022/07/08 03:52:57;;;;;;;183.63;173.73;;;14.80;99.90;;;;;;5014225;28;20686;-75
2022/07/08 03:55:24;;;;;;;245.40;232.10;;;14.90;99.90;;;;;;5024891;28;20235;-74
2022/07/08 03:57:50;;;;;;;584.77;549.63;;;14.90;99.90;;;;;;5004393;28;20266;-75
2022/07/08 04:00:16;;;;;;;74.77;67.63;;;14.90;99.90;;;;;;5025228;28;20219;-73
2022/07/08 04:02:41;;;;;;;63.47;56.63;;;15.00;99.90;;;;;;5016409;28;20246;-74
2022/07/08 04:05:10;;;;;;;87.03;80.23;;;15.00;99.90;;;;;;5018650;28;20195;-75
2022/07/08 04:07:35;;;;;;;76.93;70.50;;;15.10;99.90;;;;;;5023445;28;20203;-72
2022/07/08 04:10:01;;;;;;;85.23;78.30;;;15.10;99.90;;;;;;5011488;28;20185;-74
2022/07/08 04:12:27;;;;;;;119.60;111.77;;;15.20;99.90;;;;;;5023642;28;20689;-74
2022/07/08 04:14:52;;;;;;;119.73;112.33;;;15.30;99.90;;;;;;5013436;28;20184;-74
2022/07/08 04:17:18;;;;;;;211.23;199.20;;;15.20;99.90;;;;;;5023449;28;20572;-74
2022/07/08 04:19:43;;;;;;;113.80;105.70;;;15.20;99.90;;;;;;5010888;28;20225;-73
2022/07/08 04:22:09;;;;;;;74.50;68.70;;;15.20;99.90;;;;;;5022739;28;20187;-73
2022/07/08 04:24:34;;;;;;;31.80;26.43;;;15.20;99.90;;;;;;5016504;28;20635;-73
2022/07/08 04:27:00;;;;;;;98.50;60.10;;;15.20;99.90;;;;;;5020932;28;20183;-73
2022/07/08 04:29:25;;;;;;;104.63;97.13;;;15.20;99.90;;;;;;5018245;28;20270;-72
2022/07/08 04:31:51;;;;;;;176.17;162.77;;;15.20;99.90;;;;;;5023823;28;20192;-74
2022/07/08 04:34:16;;;;;;;111.97;104.57;;;15.20;99.90;;;;;;5017939;28;20223;-74
2022/07/08 04:36:42;;;;;;;167.50;158.07;;;15.20;99.90;;;;;;5025144;28;20213;-74
2022/07/08 04:39:07;;;;;;;183.90;172.80;;;15.20;99.90;;;;;;5023979;28;20277;-75
2022/07/08 04:41:33;;;;;;;340.57;321.47;;;15.10;99.90;;;;;;5028270;28;20194;-74
2022/07/08 04:43:58;;;;;;;79.80;72.97;;;15.00;99.90;;;;;;5011736;28;20203;-74
2022/07/08 04:46:24;;;;;;;69.73;64.37;;;15.00;99.90;;;;;;5029535;28;20199;-74
2022/07/08 04:48:49;;;;;;;107.43;100.07;;;15.00;99.90;;;;;;5018881;28;20212;-74
2022/07/08 04:51:15;;;;;;;139.87;131.57;;;15.10;99.90;;;;;;5028572;28;20192;-73
2022/07/08 04:53:40;;;;;;;272.97;258.23;;;15.10;99.90;;;;;;5011829;28;20602;-73
2022/07/08 04:56:06;;;;;;;443.90;418.47;;;15.10;99.90;;;;;;5028241;28;20573;-71
2022/07/08 04:58:40;;;;;;;286.40;269.77;;;15.10;99.90;;;;;;5012416;28;20208;-74
2022/07/08 05:01:05;;;;;;;222.30;210.27;;;15.00;99.90;;;;;;5029129;28;20218;-75
2022/07/08 05:03:31;;;;;;;289.17;273.63;;;15.00;99.90;;;;;;5022454;28;20567;-76
2022/07/08 05:05:56;;;;;;;257.00;243.80;;;15.10;99.90;;;;;;5028838;28;20187;-74
2022/07/08 05:08:22;;;;;;;233.57;220.77;;;15.10;99.90;;;;;;5014513;28;20192;-68
2022/07/08 05:10:48;;;;;;;249.60;236.50;;;15.10;99.90;;;;;;5028177;28;20758;-68
2022/07/08 05:13:13;;;;;;;322.70;305.03;;;15.20;99.90;;;;;;5015349;28;20224;-66
2022/07/08 05:15:39;;;;;;;177.73;168.20;;;15.20;99.90;;;;;;5027379;28;20246;-67
2022/07/08 05:18:05;;;;;;;322.67;305.60;;;15.10;99.90;;;;;;5025527;28;20389;-71
2022/07/08 05:20:30;;;;;;;158.60;147.67;;;15.10;99.90;;;;;;5028270;28;20254;-66
2022/07/08 05:22:56;;;;;;;173.23;163.60;;;15.00;99.90;;;;;;5020235;28;20591;-67
2022/07/08 05:25:22;;;;;;;214.90;201.13;;;15.00;99.90;;;;;;5027659;28;20725;-67
2022/07/08 05:27:47;;;;;;;303.67;287.83;;;14.90;99.90;;;;;;5026410;28;20203;-67
2022/07/08 05:30:13;;;;;;;198.40;187.87;;;14.90;99.90;;;;;;5028518;28;20195;-66
2022/07/08 05:32:39;;;;;;;336.03;317.73;;;15.00;99.90;;;;;;5026900;28;20203;-66
2022/07/08 05:35:05;;;;;;;243.40;230.40;;;15.00;99.90;;;;;;5011541;28;20203;-65
2022/07/08 05:37:31;;;;;;;161.77;152.63;;;14.90;99.90;;;;;;5018739;28;20200;-66
2022/07/08 05:39:57;;;;;;;279.80;264.63;;;14.90;99.90;;;;;;5020904;28;20710;-65
2022/07/08 05:42:22;;;;;;;244.20;231.07;;;14.90;99.90;;;;;;5025469;28;20195;-67
2022/07/08 05:44:48;;;;;;;432.50;408.03;;;14.90;99.90;;;;;;5016969;28;20259;-65
2022/07/08 05:47:13;;;;;;;61.90;56.20;;;15.00;99.90;;;;;;5021710;28;20188;-65
2022/07/08 05:49:40;;;;;;;48.47;43.40;;;15.00;99.90;;;;;;5022515;28;20623;-65
2022/07/08 05:52:06;;;;;;;36.77;30.83;;;15.10;99.90;;;;;;5025255;28;20593;-66
2022/07/08 05:54:32;;;;;;;41.77;34.77;;;15.10;99.90;;;;;;5015108;28;20192;-65
2022/07/08 05:56:58;;;;;;;106.33;82.30;;;15.10;99.90;;;;;;5023607;28;20311;-65
2022/07/08 05:59:23;;;;;;;49.50;44.10;;;15.00;99.90;;;;;;5020589;28;20207;-66
2022/07/08 06:01:50;;;;;;;97.87;71.57;;;15.10;99.90;;;;;;5023112;28;20216;-65
2022/07/08 06:04:15;;;;;;;49.17;44.30;;;15.00;99.90;;;;;;5021016;28;20184;-66
2022/07/08 06:06:41;;;;;;;54.70;49.50;;;14.90;99.90;;;;;;5027515;28;20724;-64
2022/07/08 06:09:06;;;;;;;38.50;34.97;;;14.90;99.90;;;;;;5016731;28;20202;-65
2022/07/08 06:11:32;;;;;;;56.73;51.03;;;15.00;99.90;;;;;;5022355;28;20282;-66
2022/07/08 06:13:57;;;;;;;63.97;58.10;;;15.00;99.90;;;;;;5011426;28;20198;-66
2022/07/08 06:16:23;;;;;;;41.23;36.83;;;14.90;99.90;;;;;;5027736;28;20203;-66
2022/07/08 06:18:49;;;;;;;67.27;62.20;;;14.90;99.90;;;;;;5023082;28;20559;-65
2022/07/08 06:21:15;;;;;;;51.53;45.07;;;14.90;99.90;;;;;;5027025;28;20269;-65
2022/07/08 06:23:40;;;;;;;47.07;42.23;;;14.90;99.90;;;;;;5016353;28;20248;-65
2022/07/08 06:26:06;;;;;;;74.80;68.97;;;14.90;99.90;;;;;;5027354;28;20195;-65
2022/07/08 06:28:31;;;;;;;53.63;48.20;;;14.90;99.90;;;;;;5016471;28;20613;-66
2022/07/08 06:30:57;;;;;;;67.47;60.87;;;14.90;99.90;;;;;;5027659;28;20199;-66
2022/07/08 06:33:22;;;;;;;47.13;42.10;;;14.90;99.90;;;;;;5012231;28;20231;-65
2022/07/08 06:35:48;;;;;;;59.53;53.27;;;14.90;99.90;;;;;;5027061;28;20195;-66
2022/07/08 06:38:13;;;;;;;79.40;73.53;;;14.90;99.90;;;;;;5013372;28;20200;-66
2022/07/08 06:40:39;;;;;;;65.87;59.43;;;14.90;99.90;;;;;;5026786;28;20649;-65
2022/07/08 06:43:04;;;;;;;116.57;107.53;;;14.90;99.90;;;;;;5023652;28;20780;-66
2022/07/08 06:45:32;;;;;;;153.73;143.63;;;14.90;99.90;;;;;;5026825;28;20573;-65
2022/07/08 06:47:59;;;;;;;112.03;104.37;;;14.90;99.90;;;;;;5024929;28;20286;-65
2022/07/08 06:50:24;;;;;;;126.10;117.20;;;15.00;99.90;;;;;;5026668;28;20208;-65
2022/07/08 06:52:50;;;;;;;129.03;121.30;;;14.90;99.90;;;;;;5015604;28;20671;-66
2022/07/08 06:55:15;;;;;;;132.13;124.10;;;14.90;99.90;;;;;;5025988;28;20258;-66
2022/07/08 06:57:41;;;;;;;121.37;113.53;;;15.00;99.90;;;;;;5025299;28;20681;-67
2022/07/08 07:00:07;;;;;;;82.50;76.07;;;15.00;99.90;;;;;;5024799;28;20215;-66
2022/07/08 07:02:33;;;;;;;62.47;56.33;;;14.90;99.90;;;;;;5017683;28;20208;-66
2022/07/08 07:04:58;;;;;;;56.83;50.97;;;15.00;99.90;;;;;;5019501;28;20609;-67
2022/07/08 07:07:24;;;;;;;46.83;42.33;;;15.00;99.90;;;;;;5019442;28;20924;-68
2022/07/08 07:09:49;;;;;;;66.23;60.23;;;15.10;99.90;;;;;;5007482;28;20187;-67
2022/07/08 07:12:15;;;;;;;52.07;47.10;;;15.20;99.90;;;;;;5024206;28;20767;-66
2022/07/08 07:14:40;;;;;;;62.30;57.03;;;15.30;99.90;;;;;;5012675;28;20192;-66
2022/07/08 07:17:06;;;;;;;49.23;44.47;;;15.30;99.90;;;;;;5020837;28;20208;-66
2022/07/08 07:19:31;;;;;;;64.13;58.23;;;15.20;99.90;;;;;;5016003;28;20585;-67
2022/07/08 07:21:57;;;;;;;105.13;93.83;;;15.30;99.90;;;;;;5006500;28;20236;-67
2022/07/08 07:24:22;;;;;;;68.73;63.33;;;15.30;99.90;;;;;;5008323;28;20169;-65
2022/07/08 07:26:48;;;;;;;93.97;84.40;;;15.30;99.90;;;;;;5012287;28;20240;-68
2022/07/08 07:29:13;;;;;;;70.90;64.90;;;15.30;99.90;;;;;;5023381;28;20593;-67
2022/07/08 07:31:39;;;;;;;85.83;79.80;;;15.30;99.90;;;;;;5025537;28;20253;-71
2022/07/08 07:34:04;;;;;;;84.87;78.43;;;15.30;99.90;;;;;;5015232;28;20207;-71
2022/07/08 07:36:30;;;;;;;92.13;85.87;;;15.30;99.90;;;;;;5026587;28;20286;-73
2022/07/08 07:38:56;;;;;;;126.30;118.63;;;15.40;99.90;;;;;;5015213;28;20238;-72
2022/07/08 07:41:21;;;;;;;171.43;162.57;;;15.70;99.90;;;;;;5026415;28;20555;-73
2022/07/08 07:43:47;;;;;;;127.60;120.20;;;15.80;99.90;;;;;;5010633;28;20282;-74
2022/07/08 07:46:12;;;;;;;158.83;149.23;;;15.80;99.90;;;;;;5026369;28;20557;-72
2022/07/08 07:48:38;;;;;;;166.90;157.57;;;15.90;99.90;;;;;;5014919;28;20575;-73
2022/07/08 07:51:04;;;;;;;127.83;119.43;;;15.80;99.90;;;;;;5024918;28;20192;-72
2022/07/08 07:53:29;;;;;;;81.63;76.60;;;15.90;99.90;;;;;;5015202;28;20562;-72
2022/07/08 07:55:57;;;;;;;89.90;83.20;;;15.80;99.90;;;;;;5022508;28;20231;-72
2022/07/08 07:58:23;;;;;;;94.10;87.67;;;15.80;99.90;;;;;;5010967;28;20211;-74
2022/07/08 08:00:49;;;;;;;86.87;79.63;;;15.90;99.90;;;;;;5017232;28;20204;-73
2022/07/08 08:03:15;;;;;;;96.33;89.43;;;16.00;99.90;;;;;;5015592;28;20274;-72
2022/07/08 08:05:42;;;;;;;63.27;58.00;;;16.00;99.90;;;;;;5023255;28;20191;-72
2022/07/08 08:08:08;;;;;;;72.47;67.10;;;16.20;99.90;;;;;;5012148;28;20207;-73
2022/07/08 08:10:34;;;;;;;118.47;111.03;;;16.40;99.90;;;;;;5024011;28;20257;-75
2022/07/08 08:13:00;;;;;;;110.60;103.33;;;16.30;99.90;;;;;;5014311;28;20212;-85
2022/07/08 08:15:29;;;;;;;64.03;58.83;;;16.40;99.90;;;;;;5024327;28;20187;-76
2022/07/08 08:17:55;;;;;;;47.10;43.20;;;16.70;99.90;;;;;;5021385;28;20235;-79
2022/07/08 08:20:26;;;;;;;52.20;47.30;;;16.90;99.90;;;;;;5024640;28;20302;-77
2022/07/08 08:22:52;;;;;;;53.23;48.00;;;16.70;99.90;;;;;;4994180;28;20200;-76
2022/07/08 08:25:19;;;;;;;61.97;56.70;;;16.70;99.90;;;;;;5023402;28;20596;-77
2022/07/08 08:27:45;;;;;;;86.60;80.27;;;16.60;99.90;;;;;;5014550;28;20206;-76
2022/07/08 08:30:11;;;;;;;284.03;267.47;;;16.80;99.90;;;;;;5018631;28;20727;-76
2022/07/08 08:32:37;;;;;;;50.07;45.53;;;16.80;99.90;;;;;;5022876;28;20203;-79
2022/07/08 08:35:03;;;;;;;65.03;60.27;;;16.80;99.90;;;;;;5008286;28;20273;-78
2022/07/08 08:37:29;;;;;;;97.30;90.00;;;16.90;99.90;;;;;;5023397;28;20511;-75
2022/07/08 08:39:54;;;;;;;119.13;111.77;;;17.10;99.90;;;;;;5014166;28;20200;-76
2022/07/08 08:42:20;;;;;;;58.03;53.03;;;17.10;99.90;;;;;;5018228;28;20227;-77
2022/07/08 08:44:57;;;;;;;57.07;52.47;;;17.10;99.90;;;;;;5016889;28;20730;-78
2022/07/08 08:47:28;;;;;;;879.83;814.63;;;17.30;99.90;;;;;;4990621;28;20223;-74
2022/07/08 08:49:55;;;;;;;643.60;603.20;;;17.10;99.90;;;;;;5021686;28;20728;-72
2022/07/08 08:52:23;;;;;;;600.47;563.47;;;17.00;99.90;;;;;;5022704;28;20219;-73
2022/07/08 08:54:49;;;;;;;593.03;556.30;;;17.10;99.90;;;;;;5014152;28;20188;-72
2022/07/08 08:57:16;;;;;;;563.57;529.53;;;16.80;99.90;;;;;;5018665;28;20630;-75
2022/07/08 08:59:42;;;;;;;577.60;541.70;;;16.80;99.90;;;;;;5015766;28;20222;-75
2022/07/08 09:02:11;;;;;;;581.33;545.67;;;16.90;99.90;;;;;;5020227;28;20200;-74
2022/07/08 09:04:37;;;;;;;592.90;557.13;;;16.90;99.90;;;;;;5009790;28;20242;-79
2022/07/08 09:07:03;;;;;;;578.47;541.50;;;16.80;99.90;;;;;;5013731;28;20200;-74
2022/07/08 09:09:28;;;;;;;561.33;527.13;;;16.60;99.90;;;;;;5018309;28;20534;-75
2022/07/08 09:11:54;;;;;;;596.70;557.20;;;16.40;99.90;;;;;;5022146;28;20888;-72
2022/07/08 09:14:21;;;;;;;544.37;511.47;;;16.50;99.90;;;;;;5017809;28;20183;-74
2022/07/08 09:17:07;;;;;;;564.90;530.63;;;16.40;99.90;;;;;;5022513;28;20290;-73
2022/07/08 09:19:33;;;;;;;577.97;541.87;;;16.40;99.90;;;;;;5011611;28;20216;-74
2022/07/08 09:21:58;;;;;;;600.17;559.90;;;16.90;99.90;;;;;;5020569;28;20662;-74
2022/07/08 09:24:24;;;;;;;559.97;525.63;;;16.60;99.90;;;;;;5005594;28;20176;-73
2022/07/08 09:26:55;;;;;;;633.30;590.77;;;16.60;99.90;;;;;;5024030;28;20226;-78
2022/07/08 09:29:21;;;;;;;595.63;558.90;;;16.70;99.90;;;;;;5015739;28;20240;-74
2022/07/08 09:31:47;;;;;;;791.80;741.40;;;16.80;99.90;;;;;;5025626;28;20203;-74
2022/07/08 09:34:16;;;;;;;523.47;492.63;;;16.70;99.90;;;;;;5011548;28;20219;-74
2022/07/08 09:36:45;;;;;;;494.20;466.03;;;16.60;99.90;;;;;;5028704;28;20199;-74
2022/07/08 09:39:26;;;;;;;503.57;473.90;;;16.60;99.90;;;;;;5009102;28;20192;-74
2022/07/08 09:41:52;;;;;;;567.00;529.13;;;16.50;99.90;;;;;;5026057;28;20703;-75
2022/07/08 09:44:20;;;;;;;489.23;461.03;;;16.50;99.90;;;;;;5027628;28;20219;-86
2022/07/08 09:46:47;;;;;;;469.43;443.20;;;16.50;99.90;;;;;;5027908;28;20219;-79
2022/07/08 09:49:29;;;;;;;446.83;422.17;;;16.60;99.90;;;;;;5028863;28;20192;-79
2022/07/08 09:51:57;;;;;;;490.07;459.07;;;16.60;99.90;;;;;;5026174;28;20197;-82
2022/07/08 09:54:23;;;;;;;454.47;429.43;;;17.00;99.90;;;;;;5012566;28;20176;-79
2022/07/08 09:57:02;;;;;;;488.73;459.43;;;17.20;99.90;;;;;;5026227;28;20237;-78
2022/07/08 09:59:29;;;;;;;487.27;459.40;;;17.10;99.90;;;;;;5016921;28;20659;-80
2022/07/08 10:01:54;;;;;;;544.83;510.33;;;17.60;99.90;;;;;;5026688;28;20192;-79
2022/07/08 10:04:22;;;;;;;527.33;496.73;;;18.00;99.90;;;;;;5020258;28;20215;-81
2022/07/08 10:06:48;;;;;;;556.10;521.17;;;17.90;99.90;;;;;;5027833;28;20190;-86
2022/07/08 10:09:14;;;;;;;250.77;237.33;;;17.60;99.90;;;;;;5024126;28;20297;-86
2022/07/08 10:11:40;;;;;;;668.50;626.73;;;17.50;99.90;;;;;;5029485;28;20243;-82
2022/07/08 10:14:06;;;;;;;522.47;492.30;;;17.60;99.90;;;;;;5022152;28;20230;-88
2022/07/08 10:16:34;;;;;;;499.00;471.03;;;17.70;99.90;;;;;;5030086;28;20204;-88
2022/07/08 10:19:03;;;;;;;538.97;507.77;;;17.90;99.90;;;;;;5023987;28;20619;-83
2022/07/08 10:21:29;;;;;;;548.87;516.30;;;18.10;99.90;;;;;;5028462;28;20200;-81
2022/07/08 10:23:55;;;;;;;745.57;698.97;;;18.20;99.90;;;;;;5013736;28;20231;-80
2022/07/08 10:26:28;;;;;;;446.23;421.83;;;18.30;99.90;;;;;;5028262;28;20284;-81
2022/07/08 10:29:27;;;;;;;451.27;426.47;;;18.80;99.90;;;;;;5013411;28;20207;-82
2022/07/08 10:31:53;;;;;;;322.77;302.93;;;18.70;99.90;;;;;;5016709;28;20228;-82
2022/07/08 10:34:20;;;;;;;298.77;283.97;;;18.90;99.90;;;;;;5021701;28;20223;-81
2022/07/08 10:36:47;;;;;;;263.70;250.20;;;18.60;99.90;;;;;;5026483;28;20204;-81
2022/07/08 10:39:13;;;;;;;264.33;251.93;;;18.70;99.90;;;;;;5020983;28;20220;-81
2022/07/08 10:41:39;;;;;;;280.73;267.07;;;19.30;99.90;;;;;;5021472;28;20277;-80
2022/07/08 10:44:05;;;;;;;280.17;266.70;;;19.20;99.90;;;;;;5020597;28;20225;-79
2022/07/08 10:46:30;;;;;;;293.10;278.93;;;19.20;99.90;;;;;;5027227;28;20257;-79
2022/07/08 10:48:58;;;;;;;307.63;292.63;;;19.40;99.90;;;;;;5013317;28;20284;-83
2022/07/08 10:51:27;;;;;;;302.90;288.50;;;19.80;99.90;;;;;;5029730;28;20195;-85
2022/07/08 10:53:54;;;;;;;321.20;304.97;;;19.80;99.90;;;;;;5008918;28;20218;-85
2022/07/08 10:56:45;;;;;;;331.00;315.23;;;20.00;98.90;;;;;;5028676;28;20703;-85
2022/07/08 10:59:36;;;;;;;356.23;338.97;;;20.10;98.70;;;;;;5008903;28;20196;-80
2022/07/08 11:02:16;;;;;;;384.07;361.53;;;20.00;99.20;;;;;;5017846;28;20531;-81
2022/07/08 11:04:45;;;;;;;341.67;324.40;;;20.20;98.60;;;;;;5016921;28;20192;-82
2022/07/08 11:07:32;;;;;;;356.17;338.40;;;20.00;98.70;;;;;;5025257;28;20231;-79
2022/07/08 11:10:10;;;;;;;363.33;344.73;;;19.90;98.20;;;;;;5010576;28;20219;-79
2022/07/08 11:12:44;;;;;;;375.87;356.77;;;20.30;98.00;;;;;;5017929;28;20306;-79
2022/07/08 11:15:18;;;;;;;392.33;372.57;;;20.30;98.10;;;;;;5013321;28;20653;-80
2022/07/08 11:17:46;;;;;;;366.67;348.00;;;20.20;98.30;;;;;;5025235;28;20208;-82
2022/07/08 11:20:14;;;;;;;349.70;331.43;;;20.30;97.00;;;;;;5026854;28;20216;-85
2022/07/08 11:22:43;;;;;;;360.70;342.27;;;20.10;96.50;;;;;;5026621;28;20210;-83
2022/07/08 11:25:11;;;;;;;422.77;400.67;;;20.20;97.30;;;;;;5029195;28;20225;-83
2022/07/08 11:27:37;;;;;;;449.33;424.40;;;21.00;96.10;;;;;;5017118;28;20207;-78
2022/07/08 11:30:07;;;;;;;475.60;448.93;;;21.30;94.60;;;;;;5006104;28;20185;-78
2022/07/08 11:32:32;;;;;;;476.00;448.77;;;21.50;93.50;;;;;;5007314;28;20310;-83
2022/07/08 11:34:58;;;;;;;461.20;435.57;;;21.30;93.80;;;;;;5007458;28;20290;-79
2022/07/08 11:37:24;;;;;;;483.70;456.10;;;21.00;94.20;;;;;;5005340;28;20203;-81
2022/07/08 11:39:50;;;;;;;482.73;455.20;;;21.00;94.20;;;;;;5007636;28;20342;-78
2022/07/08 11:42:16;;;;;;;509.47;478.30;;;20.90;93.50;;;;;;5005412;28;20235;-83
2022/07/08 11:44:45;;;;;;;515.33;485.67;;;21.10;93.40;;;;;;5003578;28;20189;-82
2022/07/08 11:47:15;;;;;;;605.03;568.00;;;21.10;92.40;;;;;;5006227;28;20206;-75
2022/07/08 11:49:43;;;;;;;705.30;659.83;;;22.00;91.40;;;;;;5005495;28;20211;-75
2022/07/08 11:52:08;;;;;;;561.70;527.37;;;21.60;91.80;;;;;;5004973;28;20234;-75
2022/07/08 11:54:34;;;;;;;580.97;545.00;;;21.30;92.00;;;;;;5005343;28;20269;-75
2022/07/08 11:57:01;;;;;;;612.87;570.87;;;21.30;92.00;;;;;;5007043;28;20546;-79
2022/07/08 11:59:32;;;;;;;500.47;470.90;;;21.20;92.30;;;;;;5006291;28;20740;-73
2022/07/08 12:01:59;;;;;;;554.73;518.87;;;21.20;92.60;;;;;;5003034;28;20187;-73
2022/07/08 12:04:26;;;;;;;552.07;518.77;;;20.80;92.40;;;;;;5005132;28;20263;-74
2022/07/08 12:06:56;;;;;;;626.80;584.83;;;20.80;93.90;;;;;;5003917;28;20199;-73
2022/07/08 12:09:23;;;;;;;575.07;540.13;;;20.90;93.70;;;;;;5004331;28;20211;-73
2022/07/08 12:11:50;;;;;;;546.80;511.60;;;20.80;93.50;;;;;;5005313;28;20195;-75
2022/07/08 12:14:16;;;;;;;460.07;434.00;;;20.40;93.40;;;;;;5009725;28;20206;-75
2022/07/08 12:16:42;;;;;;;433.30;409.57;;;20.50;93.60;;;;;;5025019;28;20248;-75